sensor_id;sensor_type;location;lat;lon;timestamp;P1;durP1;ratioP1;P2;durP2;ratioP2
49824;SDS011;35714;55.708;37.478;2024-03-06T00:00:57;1.73;;;0.68;;
49824;SDS011;35714;55.708;37.478;2024-03-06T00:03:22;2.55;;;0.85;;
49824;SDS011;35714;55.708;37.478;2024-03-06T00:05:48;3.67;;;1.00;;
49824;SDS011;35714;55.708;37.478;2024-03-06T00:08:14;2.20;;;0.70;;
49824;SDS011;35714;55.708;37.478;2024-03-06T00:10:40;3.10;;;0.82;;
49824;SDS011;35714;55.708;37.478;2024-03-06T00:13:06;3.63;;;1.05;;
49824;SDS011;35714;55.708;37.478;2024-03-06T00:15:32;3.17;;;1.08;;
49824;SDS011;35714;55.708;37.478;2024-03-06T00:17:57;5.75;;;1.42;;
49824;SDS011;35714;55.708;37.478;2024-03-06T00:20:23;3.80;;;1.00;;
49824;SDS011;35714;55.708;37.478;2024-03-06T00:22:49;3.85;;;1.20;;
49824;SDS011;35714;55.708;37.478;2024-03-06T00:25:15;3.45;;;0.95;;
49824;SDS011;35714;55.708;37.478;2024-03-06T00:27:40;3.40;;;0.77;;
49824;SDS011;35714;55.708;37.478;2024-03-06T00:30:06;2.55;;;0.68;;
49824;SDS011;35714;55.708;37.478;2024-03-06T00:32:32;3.63;;;0.82;;
49824;SDS011;35714;55.708;37.478;2024-03-06T00:34:58;4.88;;;0.85;;
49824;SDS011;35714;55.708;37.478;2024-03-06T00:37:23;3.25;;;0.90;;
49824;SDS011;35714;55.708;37.478;2024-03-06T00:39:49;2.50;;;0.88;;
49824;SDS011;35714;55.708;37.478;2024-03-06T00:42:14;5.82;;;1.05;;
49824;SDS011;35714;55.708;37.478;2024-03-06T00:44:40;2.13;;;0.77;;
49824;SDS011;35714;55.708;37.478;2024-03-06T00:47:06;2.38;;;0.90;;
49824;SDS011;35714;55.708;37.478;2024-03-06T00:49:32;5.50;;;1.38;;
49824;SDS011;35714;55.708;37.478;2024-03-06T00:51:57;3.63;;;1.10;;
49824;SDS011;35714;55.708;37.478;2024-03-06T00:54:23;2.28;;;0.60;;
49824;SDS011;35714;55.708;37.478;2024-03-06T00:56:50;2.35;;;0.70;;
49824;SDS011;35714;55.708;37.478;2024-03-06T00:59:15;6.20;;;0.80;;
49824;SDS011;35714;55.708;37.478;2024-03-06T01:01:41;2.28;;;0.70;;
49824;SDS011;35714;55.708;37.478;2024-03-06T01:04:07;2.30;;;0.80;;
49824;SDS011;35714;55.708;37.478;2024-03-06T01:06:32;5.80;;;1.02;;
49824;SDS011;35714;55.708;37.478;2024-03-06T01:08:59;2.63;;;0.80;;
49824;SDS011;35714;55.708;37.478;2024-03-06T01:11:25;3.17;;;1.20;;
49824;SDS011;35714;55.708;37.478;2024-03-06T01:13:51;4.78;;;0.93;;
49824;SDS011;35714;55.708;37.478;2024-03-06T01:16:17;2.33;;;0.80;;
49824;SDS011;35714;55.708;37.478;2024-03-06T01:18:43;3.00;;;0.82;;
49824;SDS011;35714;55.708;37.478;2024-03-06T01:21:09;3.38;;;0.88;;
49824;SDS011;35714;55.708;37.478;2024-03-06T01:23:35;2.63;;;0.82;;
49824;SDS011;35714;55.708;37.478;2024-03-06T01:26:00;5.30;;;1.00;;
49824;SDS011;35714;55.708;37.478;2024-03-06T01:28:26;4.10;;;1.63;;
49824;SDS011;35714;55.708;37.478;2024-03-06T01:30:52;4.15;;;1.10;;
49824;SDS011;35714;55.708;37.478;2024-03-06T01:33:18;3.58;;;0.90;;
49824;SDS011;35714;55.708;37.478;2024-03-06T01:35:43;4.55;;;0.85;;
49824;SDS011;35714;55.708;37.478;2024-03-06T01:38:09;2.55;;;0.70;;
49824;SDS011;35714;55.708;37.478;2024-03-06T01:40:35;2.25;;;0.80;;
49824;SDS011;35714;55.708;37.478;2024-03-06T01:43:01;2.85;;;1.00;;
49824;SDS011;35714;55.708;37.478;2024-03-06T01:45:27;4.68;;;1.08;;
49824;SDS011;35714;55.708;37.478;2024-03-06T01:47:53;2.90;;;1.10;;
49824;SDS011;35714;55.708;37.478;2024-03-06T01:50:18;3.70;;;1.20;;
49824;SDS011;35714;55.708;37.478;2024-03-06T01:52:44;4.05;;;1.50;;
49824;SDS011;35714;55.708;37.478;2024-03-06T01:55:12;3.65;;;1.00;;
49824;SDS011;35714;55.708;37.478;2024-03-06T01:57:39;3.88;;;0.90;;
49824;SDS011;35714;55.708;37.478;2024-03-06T02:00:06;3.67;;;0.80;;
49824;SDS011;35714;55.708;37.478;2024-03-06T02:02:39;3.67;;;0.85;;
49824;SDS011;35714;55.708;37.478;2024-03-06T02:05:08;2.75;;;0.98;;
49824;SDS011;35714;55.708;37.478;2024-03-06T02:07:34;2.67;;;0.85;;
49824;SDS011;35714;55.708;37.478;2024-03-06T02:10:04;5.35;;;1.20;;
49824;SDS011;35714;55.708;37.478;2024-03-06T02:12:32;2.15;;;0.80;;
49824;SDS011;35714;55.708;37.478;2024-03-06T02:14:58;3.90;;;1.17;;
49824;SDS011;35714;55.708;37.478;2024-03-06T02:17:23;3.67;;;0.80;;
49824;SDS011;35714;55.708;37.478;2024-03-06T02:19:50;3.88;;;0.80;;
49824;SDS011;35714;55.708;37.478;2024-03-06T02:22:16;2.78;;;1.10;;
49824;SDS011;35714;55.708;37.478;2024-03-06T02:24:46;3.05;;;0.90;;
49824;SDS011;35714;55.708;37.478;2024-03-06T02:27:15;3.53;;;0.80;;
49824;SDS011;35714;55.708;37.478;2024-03-06T02:29:42;4.57;;;0.90;;
49824;SDS011;35714;55.708;37.478;2024-03-06T02:32:08;3.25;;;0.88;;
49824;SDS011;35714;55.708;37.478;2024-03-06T02:34:34;4.60;;;0.75;;
49824;SDS011;35714;55.708;37.478;2024-03-06T02:37:00;4.22;;;1.00;;
49824;SDS011;35714;55.708;37.478;2024-03-06T02:39:26;2.17;;;0.70;;
49824;SDS011;35714;55.708;37.478;2024-03-06T02:41:51;2.42;;;0.70;;
49824;SDS011;35714;55.708;37.478;2024-03-06T02:44:17;4.18;;;0.85;;
49824;SDS011;35714;55.708;37.478;2024-03-06T02:46:50;2.70;;;1.10;;
49824;SDS011;35714;55.708;37.478;2024-03-06T02:49:16;4.85;;;1.48;;
49824;SDS011;35714;55.708;37.478;2024-03-06T02:51:43;3.65;;;1.17;;
49824;SDS011;35714;55.708;37.478;2024-03-06T02:54:09;4.10;;;1.20;;
49824;SDS011;35714;55.708;37.478;2024-03-06T02:56:34;3.67;;;1.30;;
49824;SDS011;35714;55.708;37.478;2024-03-06T02:59:00;4.18;;;1.20;;
49824;SDS011;35714;55.708;37.478;2024-03-06T03:01:28;5.25;;;1.20;;
49824;SDS011;35714;55.708;37.478;2024-03-06T03:03:55;3.35;;;1.20;;
49824;SDS011;35714;55.708;37.478;2024-03-06T03:06:21;3.45;;;1.23;;
49824;SDS011;35714;55.708;37.478;2024-03-06T03:08:49;3.85;;;1.20;;
49824;SDS011;35714;55.708;37.478;2024-03-06T03:11:15;3.85;;;1.13;;
49824;SDS011;35714;55.708;37.478;2024-03-06T03:13:43;3.13;;;1.45;;
49824;SDS011;35714;55.708;37.478;2024-03-06T03:16:16;3.13;;;1.10;;
49824;SDS011;35714;55.708;37.478;2024-03-06T03:18:43;4.45;;;1.25;;
49824;SDS011;35714;55.708;37.478;2024-03-06T03:21:09;4.35;;;1.83;;
49824;SDS011;35714;55.708;37.478;2024-03-06T03:23:37;3.03;;;1.38;;
49824;SDS011;35714;55.708;37.478;2024-03-06T03:26:03;3.47;;;0.90;;
49824;SDS011;35714;55.708;37.478;2024-03-06T03:28:32;4.70;;;1.70;;
49824;SDS011;35714;55.708;37.478;2024-03-06T03:30:58;4.70;;;0.95;;
49824;SDS011;35714;55.708;37.478;2024-03-06T03:33:24;3.00;;;1.00;;
49824;SDS011;35714;55.708;37.478;2024-03-06T03:35:50;4.40;;;1.25;;
49824;SDS011;35714;55.708;37.478;2024-03-06T03:38:16;2.08;;;0.82;;
49824;SDS011;35714;55.708;37.478;2024-03-06T03:40:42;2.83;;;1.08;;
49824;SDS011;35714;55.708;37.478;2024-03-06T03:43:08;3.38;;;1.02;;
49824;SDS011;35714;55.708;37.478;2024-03-06T03:45:34;3.58;;;1.25;;
49824;SDS011;35714;55.708;37.478;2024-03-06T03:48:01;5.13;;;1.13;;
49824;SDS011;35714;55.708;37.478;2024-03-06T03:50:28;3.38;;;1.10;;
49824;SDS011;35714;55.708;37.478;2024-03-06T03:52:55;3.58;;;1.35;;
49824;SDS011;35714;55.708;37.478;2024-03-06T03:55:26;5.05;;;1.42;;
49824;SDS011;35714;55.708;37.478;2024-03-06T03:57:52;5.28;;;1.35;;
49824;SDS011;35714;55.708;37.478;2024-03-06T04:00:18;3.20;;;1.20;;
49824;SDS011;35714;55.708;37.478;2024-03-06T04:02:44;4.97;;;1.30;;
49824;SDS011;35714;55.708;37.478;2024-03-06T04:05:10;3.17;;;1.10;;
49824;SDS011;35714;55.708;37.478;2024-03-06T04:07:36;3.03;;;1.05;;
49824;SDS011;35714;55.708;37.478;2024-03-06T04:10:02;2.80;;;1.10;;
49824;SDS011;35714;55.708;37.478;2024-03-06T04:12:29;3.83;;;1.17;;
49824;SDS011;35714;55.708;37.478;2024-03-06T04:14:56;3.30;;;1.23;;
49824;SDS011;35714;55.708;37.478;2024-03-06T04:17:22;3.70;;;1.10;;
49824;SDS011;35714;55.708;37.478;2024-03-06T04:19:47;3.97;;;1.60;;
49824;SDS011;35714;55.708;37.478;2024-03-06T04:22:14;3.33;;;1.00;;
49824;SDS011;35714;55.708;37.478;2024-03-06T04:24:43;3.92;;;1.40;;
49824;SDS011;35714;55.708;37.478;2024-03-06T04:27:08;5.03;;;1.45;;
49824;SDS011;35714;55.708;37.478;2024-03-06T04:29:34;5.00;;;1.42;;
49824;SDS011;35714;55.708;37.478;2024-03-06T04:32:00;4.88;;;1.45;;
49824;SDS011;35714;55.708;37.478;2024-03-06T04:34:25;6.80;;;1.70;;
49824;SDS011;35714;55.708;37.478;2024-03-06T04:36:51;5.20;;;1.60;;
49824;SDS011;35714;55.708;37.478;2024-03-06T04:39:16;4.72;;;1.25;;
49824;SDS011;35714;55.708;37.478;2024-03-06T04:41:42;4.70;;;1.45;;
49824;SDS011;35714;55.708;37.478;2024-03-06T04:44:07;4.07;;;1.45;;
49824;SDS011;35714;55.708;37.478;2024-03-06T04:46:33;3.53;;;1.30;;
49824;SDS011;35714;55.708;37.478;2024-03-06T04:48:58;4.65;;;1.20;;
49824;SDS011;35714;55.708;37.478;2024-03-06T04:51:24;4.07;;;1.50;;
49824;SDS011;35714;55.708;37.478;2024-03-06T04:53:50;4.07;;;1.65;;
49824;SDS011;35714;55.708;37.478;2024-03-06T04:56:15;3.75;;;1.30;;
49824;SDS011;35714;55.708;37.478;2024-03-06T04:58:44;5.40;;;1.52;;
49824;SDS011;35714;55.708;37.478;2024-03-06T05:01:11;5.60;;;1.60;;
49824;SDS011;35714;55.708;37.478;2024-03-06T05:03:37;3.97;;;1.30;;
49824;SDS011;35714;55.708;37.478;2024-03-06T05:06:06;5.97;;;1.73;;
49824;SDS011;35714;55.708;37.478;2024-03-06T05:08:32;3.65;;;1.13;;
49824;SDS011;35714;55.708;37.478;2024-03-06T05:11:00;5.15;;;1.70;;
49824;SDS011;35714;55.708;37.478;2024-03-06T05:13:27;8.88;;;2.08;;
49824;SDS011;35714;55.708;37.478;2024-03-06T05:15:52;8.13;;;1.63;;
49824;SDS011;35714;55.708;37.478;2024-03-06T05:18:19;5.18;;;1.40;;
49824;SDS011;35714;55.708;37.478;2024-03-06T05:20:45;4.68;;;1.48;;
49824;SDS011;35714;55.708;37.478;2024-03-06T05:23:11;3.58;;;1.42;;
49824;SDS011;35714;55.708;37.478;2024-03-06T05:25:38;4.82;;;1.52;;
49824;SDS011;35714;55.708;37.478;2024-03-06T05:28:04;4.43;;;1.73;;
49824;SDS011;35714;55.708;37.478;2024-03-06T05:30:30;3.88;;;1.58;;
49824;SDS011;35714;55.708;37.478;2024-03-06T05:32:55;5.22;;;2.20;;
49824;SDS011;35714;55.708;37.478;2024-03-06T05:35:21;4.35;;;1.52;;
49824;SDS011;35714;55.708;37.478;2024-03-06T05:37:47;3.75;;;1.48;;
49824;SDS011;35714;55.708;37.478;2024-03-06T05:40:12;5.50;;;1.77;;
49824;SDS011;35714;55.708;37.478;2024-03-06T05:42:38;4.07;;;1.65;;
49824;SDS011;35714;55.708;37.478;2024-03-06T05:45:04;6.45;;;1.90;;
49824;SDS011;35714;55.708;37.478;2024-03-06T05:47:35;10.25;;;2.55;;
49824;SDS011;35714;55.708;37.478;2024-03-06T05:50:02;5.13;;;1.85;;
49824;SDS011;35714;55.708;37.478;2024-03-06T05:52:31;5.07;;;1.70;;
49824;SDS011;35714;55.708;37.478;2024-03-06T05:54:57;7.05;;;2.03;;
49824;SDS011;35714;55.708;37.478;2024-03-06T05:57:22;6.53;;;1.65;;
49824;SDS011;35714;55.708;37.478;2024-03-06T05:59:48;6.43;;;2.28;;
49824;SDS011;35714;55.708;37.478;2024-03-06T06:02:13;4.78;;;1.90;;
49824;SDS011;35714;55.708;37.478;2024-03-06T06:04:42;4.75;;;2.33;;
49824;SDS011;35714;55.708;37.478;2024-03-06T06:07:07;5.50;;;1.80;;
49824;SDS011;35714;55.708;37.478;2024-03-06T06:09:34;7.70;;;2.58;;
49824;SDS011;35714;55.708;37.478;2024-03-06T06:11:59;7.00;;;1.85;;
49824;SDS011;35714;55.708;37.478;2024-03-06T06:14:25;5.45;;;1.80;;
49824;SDS011;35714;55.708;37.478;2024-03-06T06:16:52;4.30;;;1.67;;
49824;SDS011;35714;55.708;37.478;2024-03-06T06:19:18;5.40;;;1.70;;
49824;SDS011;35714;55.708;37.478;2024-03-06T06:21:43;5.00;;;1.90;;
49824;SDS011;35714;55.708;37.478;2024-03-06T06:24:09;3.97;;;1.70;;
49824;SDS011;35714;55.708;37.478;2024-03-06T06:26:35;5.35;;;1.77;;
49824;SDS011;35714;55.708;37.478;2024-03-06T06:29:00;8.55;;;1.90;;
49824;SDS011;35714;55.708;37.478;2024-03-06T06:31:26;9.65;;;3.33;;
49824;SDS011;35714;55.708;37.478;2024-03-06T06:33:52;9.13;;;1.33;;
49824;SDS011;35714;55.708;37.478;2024-03-06T06:36:18;4.70;;;1.48;;
49824;SDS011;35714;55.708;37.478;2024-03-06T06:38:45;5.95;;;1.80;;
49824;SDS011;35714;55.708;37.478;2024-03-06T06:41:13;10.38;;;1.73;;
49824;SDS011;35714;55.708;37.478;2024-03-06T06:43:39;6.50;;;1.80;;
49824;SDS011;35714;55.708;37.478;2024-03-06T06:46:05;7.72;;;2.22;;
49824;SDS011;35714;55.708;37.478;2024-03-06T06:48:31;5.63;;;2.17;;
49824;SDS011;35714;55.708;37.478;2024-03-06T06:51:01;6.68;;;2.00;;
49824;SDS011;35714;55.708;37.478;2024-03-06T06:53:30;7.80;;;2.10;;
49824;SDS011;35714;55.708;37.478;2024-03-06T06:55:56;12.95;;;2.97;;
49824;SDS011;35714;55.708;37.478;2024-03-06T06:58:22;6.53;;;1.98;;
49824;SDS011;35714;55.708;37.478;2024-03-06T07:00:48;6.35;;;2.00;;
49824;SDS011;35714;55.708;37.478;2024-03-06T07:03:14;7.43;;;2.22;;
49824;SDS011;35714;55.708;37.478;2024-03-06T07:05:39;7.03;;;2.17;;
49824;SDS011;35714;55.708;37.478;2024-03-06T07:08:07;5.88;;;1.75;;
49824;SDS011;35714;55.708;37.478;2024-03-06T07:10:33;6.43;;;1.48;;
49824;SDS011;35714;55.708;37.478;2024-03-06T07:13:01;11.50;;;2.42;;
49824;SDS011;35714;55.708;37.478;2024-03-06T07:15:28;9.38;;;2.45;;
49824;SDS011;35714;55.708;37.478;2024-03-06T07:17:54;5.43;;;1.80;;
49824;SDS011;35714;55.708;37.478;2024-03-06T07:20:20;6.35;;;2.38;;
49824;SDS011;35714;55.708;37.478;2024-03-06T07:22:45;7.97;;;2.40;;
49824;SDS011;35714;55.708;37.478;2024-03-06T07:25:11;5.85;;;2.70;;
49824;SDS011;35714;55.708;37.478;2024-03-06T07:27:37;9.60;;;2.58;;
49824;SDS011;35714;55.708;37.478;2024-03-06T07:30:03;9.25;;;2.17;;
49824;SDS011;35714;55.708;37.478;2024-03-06T07:32:29;7.53;;;1.90;;
49824;SDS011;35714;55.708;37.478;2024-03-06T07:34:54;8.10;;;1.95;;
49824;SDS011;35714;55.708;37.478;2024-03-06T07:37:20;9.25;;;2.10;;
49824;SDS011;35714;55.708;37.478;2024-03-06T07:39:46;9.13;;;2.45;;
49824;SDS011;35714;55.708;37.478;2024-03-06T07:42:12;8.30;;;3.00;;
49824;SDS011;35714;55.708;37.478;2024-03-06T07:44:38;7.05;;;2.00;;
49824;SDS011;35714;55.708;37.478;2024-03-06T07:47:03;6.20;;;2.25;;
49824;SDS011;35714;55.708;37.478;2024-03-06T07:49:29;7.35;;;2.42;;
49824;SDS011;35714;55.708;37.478;2024-03-06T07:51:56;8.13;;;2.13;;
49824;SDS011;35714;55.708;37.478;2024-03-06T07:54:23;8.27;;;2.50;;
49824;SDS011;35714;55.708;37.478;2024-03-06T07:56:48;7.80;;;2.85;;
49824;SDS011;35714;55.708;37.478;2024-03-06T07:59:14;6.22;;;2.00;;
49824;SDS011;35714;55.708;37.478;2024-03-06T08:01:41;8.05;;;2.15;;
49824;SDS011;35714;55.708;37.478;2024-03-06T08:04:07;7.72;;;2.30;;
49824;SDS011;35714;55.708;37.478;2024-03-06T08:06:33;7.15;;;2.17;;
49824;SDS011;35714;55.708;37.478;2024-03-06T08:08:59;4.70;;;2.00;;
49824;SDS011;35714;55.708;37.478;2024-03-06T08:11:24;7.43;;;2.35;;
49824;SDS011;35714;55.708;37.478;2024-03-06T08:13:56;7.97;;;2.60;;
49824;SDS011;35714;55.708;37.478;2024-03-06T08:16:23;9.05;;;2.13;;
49824;SDS011;35714;55.708;37.478;2024-03-06T08:18:48;9.20;;;2.33;;
49824;SDS011;35714;55.708;37.478;2024-03-06T08:21:14;8.35;;;2.40;;
49824;SDS011;35714;55.708;37.478;2024-03-06T08:23:40;9.73;;;2.40;;
49824;SDS011;35714;55.708;37.478;2024-03-06T08:26:05;6.32;;;1.70;;
49824;SDS011;35714;55.708;37.478;2024-03-06T08:28:31;8.27;;;2.17;;
49824;SDS011;35714;55.708;37.478;2024-03-06T08:30:56;7.78;;;2.53;;
49824;SDS011;35714;55.708;37.478;2024-03-06T08:33:22;6.57;;;2.30;;
49824;SDS011;35714;55.708;37.478;2024-03-06T08:35:48;4.53;;;1.52;;
49824;SDS011;35714;55.708;37.478;2024-03-06T08:38:14;5.50;;;1.83;;
49824;SDS011;35714;55.708;37.478;2024-03-06T08:40:39;7.65;;;2.20;;
49824;SDS011;35714;55.708;37.478;2024-03-06T08:43:07;5.40;;;2.28;;
49824;SDS011;35714;55.708;37.478;2024-03-06T08:45:34;6.80;;;2.38;;
49824;SDS011;35714;55.708;37.478;2024-03-06T08:47:59;7.47;;;2.33;;
49824;SDS011;35714;55.708;37.478;2024-03-06T08:50:25;8.80;;;2.40;;
49824;SDS011;35714;55.708;37.478;2024-03-06T08:52:51;6.13;;;1.50;;
49824;SDS011;35714;55.708;37.478;2024-03-06T08:55:17;8.57;;;1.77;;
49824;SDS011;35714;55.708;37.478;2024-03-06T08:57:42;5.95;;;1.90;;
49824;SDS011;35714;55.708;37.478;2024-03-06T09:00:08;3.85;;;1.33;;
49824;SDS011;35714;55.708;37.478;2024-03-06T09:02:37;3.65;;;1.42;;
49824;SDS011;35714;55.708;37.478;2024-03-06T09:05:06;9.57;;;1.95;;
49824;SDS011;35714;55.708;37.478;2024-03-06T09:07:35;6.22;;;1.60;;
49824;SDS011;35714;55.708;37.478;2024-03-06T09:10:06;4.03;;;1.42;;
49824;SDS011;35714;55.708;37.478;2024-03-06T09:12:33;5.68;;;1.92;;
49824;SDS011;35714;55.708;37.478;2024-03-06T09:14:58;4.45;;;1.38;;
49824;SDS011;35714;55.708;37.478;2024-03-06T09:17:25;5.30;;;1.95;;
49824;SDS011;35714;55.708;37.478;2024-03-06T09:19:51;6.55;;;1.40;;
49824;SDS011;35714;55.708;37.478;2024-03-06T09:22:17;5.45;;;1.90;;
49824;SDS011;35714;55.708;37.478;2024-03-06T09:24:42;8.38;;;1.60;;
49824;SDS011;35714;55.708;37.478;2024-03-06T09:27:08;4.68;;;1.55;;
49824;SDS011;35714;55.708;37.478;2024-03-06T09:29:34;5.80;;;1.88;;
49824;SDS011;35714;55.708;37.478;2024-03-06T09:31:59;5.13;;;1.92;;
49824;SDS011;35714;55.708;37.478;2024-03-06T09:34:25;4.85;;;1.48;;
49824;SDS011;35714;55.708;37.478;2024-03-06T09:36:51;4.47;;;1.60;;
49824;SDS011;35714;55.708;37.478;2024-03-06T09:39:17;4.80;;;1.20;;
49824;SDS011;35714;55.708;37.478;2024-03-06T09:41:48;6.90;;;1.70;;
49824;SDS011;35714;55.708;37.478;2024-03-06T09:44:15;6.35;;;1.25;;
49824;SDS011;35714;55.708;37.478;2024-03-06T09:46:44;3.40;;;1.17;;
49824;SDS011;35714;55.708;37.478;2024-03-06T09:49:11;3.80;;;1.25;;
49824;SDS011;35714;55.708;37.478;2024-03-06T09:51:42;4.43;;;1.20;;
49824;SDS011;35714;55.708;37.478;2024-03-06T09:54:11;7.72;;;1.30;;
49824;SDS011;35714;55.708;37.478;2024-03-06T09:56:57;4.95;;;1.30;;
49824;SDS011;35714;55.708;37.478;2024-03-06T09:59:24;5.72;;;1.40;;
49824;SDS011;35714;55.708;37.478;2024-03-06T10:01:53;6.32;;;1.88;;
49824;SDS011;35714;55.708;37.478;2024-03-06T10:04:23;4.30;;;1.27;;
49824;SDS011;35714;55.708;37.478;2024-03-06T10:06:54;6.97;;;1.48;;
49824;SDS011;35714;55.708;37.478;2024-03-06T10:09:21;4.25;;;1.45;;
49824;SDS011;35714;55.708;37.478;2024-03-06T10:11:47;5.32;;;1.63;;
49824;SDS011;35714;55.708;37.478;2024-03-06T10:14:13;3.67;;;1.02;;
49824;SDS011;35714;55.708;37.478;2024-03-06T10:19:43;6.13;;;1.67;;
49824;SDS011;35714;55.708;37.478;2024-03-06T10:22:15;4.00;;;1.25;;
49824;SDS011;35714;55.708;37.478;2024-03-06T10:24:41;6.72;;;1.42;;
49824;SDS011;35714;55.708;37.478;2024-03-06T10:27:07;4.03;;;1.75;;
49824;SDS011;35714;55.708;37.478;2024-03-06T10:29:33;6.38;;;1.63;;
49824;SDS011;35714;55.708;37.478;2024-03-06T10:32:00;5.78;;;1.40;;
49824;SDS011;35714;55.708;37.478;2024-03-06T10:34:27;4.45;;;1.50;;
49824;SDS011;35714;55.708;37.478;2024-03-06T10:39:21;10.43;;;1.42;;
49824;SDS011;35714;55.708;37.478;2024-03-06T10:41:51;6.55;;;1.42;;
49824;SDS011;35714;55.708;37.478;2024-03-06T10:44:20;9.02;;;2.25;;
49824;SDS011;35714;55.708;37.478;2024-03-06T10:46:51;4.95;;;1.42;;
49824;SDS011;35714;55.708;37.478;2024-03-06T10:49:24;4.40;;;1.33;;
49824;SDS011;35714;55.708;37.478;2024-03-06T10:51:51;4.53;;;1.17;;
49824;SDS011;35714;55.708;37.478;2024-03-06T10:54:18;4.40;;;1.30;;
49824;SDS011;35714;55.708;37.478;2024-03-06T10:56:46;4.85;;;1.30;;
49824;SDS011;35714;55.708;37.478;2024-03-06T10:59:12;4.68;;;1.52;;
49824;SDS011;35714;55.708;37.478;2024-03-06T11:01:41;4.15;;;1.40;;
49824;SDS011;35714;55.708;37.478;2024-03-06T11:04:09;5.82;;;1.35;;
49824;SDS011;35714;55.708;37.478;2024-03-06T11:06:37;5.22;;;1.33;;
49824;SDS011;35714;55.708;37.478;2024-03-06T11:09:03;5.70;;;1.63;;
49824;SDS011;35714;55.708;37.478;2024-03-06T11:11:29;3.67;;;1.27;;
49824;SDS011;35714;55.708;37.478;2024-03-06T11:14:00;5.45;;;1.55;;
49824;SDS011;35714;55.708;37.478;2024-03-06T11:16:31;5.25;;;1.60;;
49824;SDS011;35714;55.708;37.478;2024-03-06T11:19:05;3.28;;;1.25;;
49824;SDS011;35714;55.708;37.478;2024-03-06T11:21:35;5.45;;;1.30;;
49824;SDS011;35714;55.708;37.478;2024-03-06T11:26:57;5.00;;;1.65;;
49824;SDS011;35714;55.708;37.478;2024-03-06T11:29:28;5.15;;;1.75;;
49824;SDS011;35714;55.708;37.478;2024-03-06T11:32:14;5.88;;;1.73;;
49824;SDS011;35714;55.708;37.478;2024-03-06T11:34:40;6.38;;;1.80;;
49824;SDS011;35714;55.708;37.478;2024-03-06T11:37:06;6.25;;;1.95;;
49824;SDS011;35714;55.708;37.478;2024-03-06T11:39:34;5.65;;;1.60;;
49824;SDS011;35714;55.708;37.478;2024-03-06T11:42:02;5.22;;;1.85;;
49824;SDS011;35714;55.708;37.478;2024-03-06T11:44:27;4.00;;;1.90;;
49824;SDS011;35714;55.708;37.478;2024-03-06T11:47:13;4.47;;;1.67;;
49824;SDS011;35714;55.708;37.478;2024-03-06T11:49:38;6.13;;;2.17;;
49824;SDS011;35714;55.708;37.478;2024-03-06T11:52:06;7.07;;;1.92;;
49824;SDS011;35714;55.708;37.478;2024-03-06T11:54:33;6.65;;;2.00;;
49824;SDS011;35714;55.708;37.478;2024-03-06T11:57:00;5.65;;;2.00;;
49824;SDS011;35714;55.708;37.478;2024-03-06T11:59:34;9.02;;;2.55;;
49824;SDS011;35714;55.708;37.478;2024-03-06T12:02:04;4.25;;;1.98;;
49824;SDS011;35714;55.708;37.478;2024-03-06T12:04:31;5.85;;;2.03;;
49824;SDS011;35714;55.708;37.478;2024-03-06T12:06:59;7.65;;;2.20;;
49824;SDS011;35714;55.708;37.478;2024-03-06T12:09:30;6.57;;;2.30;;
49824;SDS011;35714;55.708;37.478;2024-03-06T12:11:56;5.32;;;1.80;;
49824;SDS011;35714;55.708;37.478;2024-03-06T12:14:25;4.50;;;1.80;;
49824;SDS011;35714;55.708;37.478;2024-03-06T12:16:58;9.52;;;3.10;;
49824;SDS011;35714;55.708;37.478;2024-03-06T12:19:25;8.63;;;2.03;;
49824;SDS011;35714;55.708;37.478;2024-03-06T12:21:53;6.75;;;1.88;;
49824;SDS011;35714;55.708;37.478;2024-03-06T12:24:19;7.57;;;2.20;;
49824;SDS011;35714;55.708;37.478;2024-03-06T12:26:45;6.15;;;2.13;;
49824;SDS011;35714;55.708;37.478;2024-03-06T12:29:16;7.55;;;2.67;;
49824;SDS011;35714;55.708;37.478;2024-03-06T12:31:42;7.85;;;1.83;;
49824;SDS011;35714;55.708;37.478;2024-03-06T12:34:13;7.10;;;2.03;;
49824;SDS011;35714;55.708;37.478;2024-03-06T12:36:39;5.20;;;1.80;;
49824;SDS011;35714;55.708;37.478;2024-03-06T12:39:05;6.57;;;2.00;;
49824;SDS011;35714;55.708;37.478;2024-03-06T12:41:40;6.47;;;2.35;;
49824;SDS011;35714;55.708;37.478;2024-03-06T12:44:06;6.45;;;2.40;;
49824;SDS011;35714;55.708;37.478;2024-03-06T12:46:33;7.28;;;1.95;;
49824;SDS011;35714;55.708;37.478;2024-03-06T12:48:58;5.13;;;1.95;;
49824;SDS011;35714;55.708;37.478;2024-03-06T12:51:24;7.38;;;2.75;;
49824;SDS011;35714;55.708;37.478;2024-03-06T12:53:50;6.40;;;1.98;;
49824;SDS011;35714;55.708;37.478;2024-03-06T12:56:16;5.95;;;1.90;;
49824;SDS011;35714;55.708;37.478;2024-03-06T12:58:42;4.47;;;1.83;;
49824;SDS011;35714;55.708;37.478;2024-03-06T13:01:08;5.72;;;1.85;;
49824;SDS011;35714;55.708;37.478;2024-03-06T13:03:34;5.07;;;1.50;;
49824;SDS011;35714;55.708;37.478;2024-03-06T13:05:59;5.50;;;2.00;;
49824;SDS011;35714;55.708;37.478;2024-03-06T13:08:26;5.32;;;2.05;;
49824;SDS011;35714;55.708;37.478;2024-03-06T13:10:51;3.88;;;1.90;;
49824;SDS011;35714;55.708;37.478;2024-03-06T13:13:17;6.72;;;2.33;;
49824;SDS011;35714;55.708;37.478;2024-03-06T13:15:43;5.78;;;1.77;;
49824;SDS011;35714;55.708;37.478;2024-03-06T13:18:09;8.05;;;2.33;;
49824;SDS011;35714;55.708;37.478;2024-03-06T13:20:35;7.20;;;2.00;;
49824;SDS011;35714;55.708;37.478;2024-03-06T13:23:01;4.07;;;1.70;;
49824;SDS011;35714;55.708;37.478;2024-03-06T13:25:26;4.30;;;1.50;;
49824;SDS011;35714;55.708;37.478;2024-03-06T13:27:52;8.23;;;1.48;;
49824;SDS011;35714;55.708;37.478;2024-03-06T13:30:19;3.28;;;1.20;;
49824;SDS011;35714;55.708;37.478;2024-03-06T13:32:45;4.88;;;1.33;;
49824;SDS011;35714;55.708;37.478;2024-03-06T13:35:11;5.30;;;1.63;;
49824;SDS011;35714;55.708;37.478;2024-03-06T13:37:41;7.35;;;1.40;;
49824;SDS011;35714;55.708;37.478;2024-03-06T13:40:08;4.45;;;1.23;;
49824;SDS011;35714;55.708;37.478;2024-03-06T13:42:36;3.78;;;1.25;;
49824;SDS011;35714;55.708;37.478;2024-03-06T13:45:02;13.52;;;1.70;;
49824;SDS011;35714;55.708;37.478;2024-03-06T13:47:28;6.72;;;1.52;;
49824;SDS011;35714;55.708;37.478;2024-03-06T13:49:55;5.55;;;1.70;;
49824;SDS011;35714;55.708;37.478;2024-03-06T13:52:21;5.03;;;1.38;;
49824;SDS011;35714;55.708;37.478;2024-03-06T13:54:48;5.47;;;1.17;;
49824;SDS011;35714;55.708;37.478;2024-03-06T13:57:14;6.30;;;1.40;;
49824;SDS011;35714;55.708;37.478;2024-03-06T13:59:40;5.05;;;1.27;;
49824;SDS011;35714;55.708;37.478;2024-03-06T14:02:07;5.00;;;1.63;;
49824;SDS011;35714;55.708;37.478;2024-03-06T14:04:33;6.65;;;1.30;;
49824;SDS011;35714;55.708;37.478;2024-03-06T14:06:59;5.75;;;0.88;;
49824;SDS011;35714;55.708;37.478;2024-03-06T14:09:25;4.05;;;1.00;;
49824;SDS011;35714;55.708;37.478;2024-03-06T14:11:52;3.33;;;0.90;;
49824;SDS011;35714;55.708;37.478;2024-03-06T14:14:18;4.53;;;1.08;;
49824;SDS011;35714;55.708;37.478;2024-03-06T14:16:44;4.75;;;0.93;;
49824;SDS011;35714;55.708;37.478;2024-03-06T14:19:10;4.15;;;1.13;;
49824;SDS011;35714;55.708;37.478;2024-03-06T14:21:36;3.35;;;1.13;;
49824;SDS011;35714;55.708;37.478;2024-03-06T14:24:03;5.25;;;0.82;;
49824;SDS011;35714;55.708;37.478;2024-03-06T14:26:32;4.78;;;1.10;;
49824;SDS011;35714;55.708;37.478;2024-03-06T14:28:59;3.35;;;1.25;;
49824;SDS011;35714;55.708;37.478;2024-03-06T14:31:25;4.03;;;1.30;;
49824;SDS011;35714;55.708;37.478;2024-03-06T14:33:51;5.40;;;0.98;;
49824;SDS011;35714;55.708;37.478;2024-03-06T14:36:17;7.00;;;1.33;;
49824;SDS011;35714;55.708;37.478;2024-03-06T14:38:43;5.10;;;1.02;;